Spirit Lake, Iowa
Current Conditions -  °F | °C
As of 8:34 AM on Tuesday 27 Jan 2015 (Local Time) from KMJQ Reporting Station
Clear Clear  
Wind Chill: 30°   Ceiling: Unl
Heat Index: 30°   Visibility: 10mi
Dew Point: 28°   Wind: 0mph
Humidity: 93%   Direction: NA
Pressure: 30.12"   Gusts: NA
Location:  43.42°N, 95.1°W
Report Text: KMJQ 271434Z AUTO 00000KT 10SM CLR M01/M02 A3012 RMK AO2
Loading
Personal Weather Stations






























Interactive Weather Map New forecast layout! Learn more

10-Day Weather Forecast

Advertisements
Track Severe Weather on mobile